sensor_id;sensor_type;location;lat;lon;timestamp;temperature;humidity
22073;DHT22;11202;50.916;4.698;2022-07-23T00:00:50;16.20;99.90
22073;DHT22;11202;50.916;4.698;2022-07-23T00:03:16;16.20;99.90
22073;DHT22;11202;50.916;4.698;2022-07-23T00:05:42;16.20;99.90
22073;DHT22;11202;50.916;4.698;2022-07-23T00:08:08;16.10;99.90
22073;DHT22;11202;50.916;4.698;2022-07-23T00:10:35;16.30;99.90
22073;DHT22;11202;50.916;4.698;2022-07-23T00:13:01;16.40;99.90
22073;DHT22;11202;50.916;4.698;2022-07-23T00:15:27;16.60;99.90
22073;DHT22;11202;50.916;4.698;2022-07-23T00:17:52;16.50;99.90
22073;DHT22;11202;50.916;4.698;2022-07-23T00:20:20;16.20;99.90
22073;DHT22;11202;50.916;4.698;2022-07-23T00:22:51;16.10;99.90
22073;DHT22;11202;50.916;4.698;2022-07-23T00:25:17;16.00;99.90
22073;DHT22;11202;50.916;4.698;2022-07-23T00:27:43;16.10;99.90
22073;DHT22;11202;50.916;4.698;2022-07-23T00:30:09;16.00;99.90
22073;DHT22;11202;50.916;4.698;2022-07-23T00:32:49;15.90;99.90
22073;DHT22;11202;50.916;4.698;2022-07-23T00:35:18;15.90;99.90
22073;DHT22;11202;50.916;4.698;2022-07-23T00:37:47;15.90;99.90
22073;DHT22;11202;50.916;4.698;2022-07-23T00:40:13;15.90;99.90
22073;DHT22;11202;50.916;4.698;2022-07-23T00:42:39;15.90;99.90
22073;DHT22;11202;50.916;4.698;2022-07-23T00:45:06;15.80;99.90
22073;DHT22;11202;50.916;4.698;2022-07-23T00:47:33;15.60;99.90
22073;DHT22;11202;50.916;4.698;2022-07-23T00:50:01;15.50;99.90
22073;DHT22;11202;50.916;4.698;2022-07-23T00:52:26;15.40;99.90
22073;DHT22;11202;50.916;4.698;2022-07-23T00:54:52;15.50;99.90
22073;DHT22;11202;50.916;4.698;2022-07-23T00:57:18;15.40;99.90
22073;DHT22;11202;50.916;4.698;2022-07-23T00:59:44;15.40;99.90
22073;DHT22;11202;50.916;4.698;2022-07-23T01:02:13;15.40;99.90
22073;DHT22;11202;50.916;4.698;2022-07-23T01:04:41;15.20;99.90
22073;DHT22;11202;50.916;4.698;2022-07-23T01:07:10;15.00;99.90
22073;DHT22;11202;50.916;4.698;2022-07-23T01:09:36;15.00;99.90
22073;DHT22;11202;50.916;4.698;2022-07-23T01:12:03;14.90;99.90
22073;DHT22;11202;50.916;4.698;2022-07-23T01:14:29;14.90;99.90
22073;DHT22;11202;50.916;4.698;2022-07-23T01:16:57;14.90;99.90
22073;DHT22;11202;50.916;4.698;2022-07-23T01:19:23;14.80;99.90
22073;DHT22;11202;50.916;4.698;2022-07-23T01:21:50;14.90;99.90
22073;DHT22;11202;50.916;4.698;2022-07-23T01:24:17;14.90;99.90
22073;DHT22;11202;50.916;4.698;2022-07-23T01:26:46;14.90;99.90
22073;DHT22;11202;50.916;4.698;2022-07-23T01:29:12;15.00;99.90
22073;DHT22;11202;50.916;4.698;2022-07-23T01:31:41;14.90;99.90
22073;DHT22;11202;50.916;4.698;2022-07-23T01:34:07;14.80;99.90
22073;DHT22;11202;50.916;4.698;2022-07-23T01:36:37;14.90;99.90
22073;DHT22;11202;50.916;4.698;2022-07-23T01:39:04;15.00;99.90
22073;DHT22;11202;50.916;4.698;2022-07-23T01:41:30;15.10;99.90
22073;DHT22;11202;50.916;4.698;2022-07-23T01:43:56;15.10;99.90
22073;DHT22;11202;50.916;4.698;2022-07-23T01:46:22;15.20;99.90
22073;DHT22;11202;50.916;4.698;2022-07-23T01:48:48;15.10;99.90
22073;DHT22;11202;50.916;4.698;2022-07-23T01:51:14;15.00;99.90
22073;DHT22;11202;50.916;4.698;2022-07-23T01:53:43;14.80;99.90
22073;DHT22;11202;50.916;4.698;2022-07-23T01:56:11;14.70;99.90
22073;DHT22;11202;50.916;4.698;2022-07-23T01:58:37;14.80;99.90
22073;DHT22;11202;50.916;4.698;2022-07-23T02:01:05;14.70;99.90
22073;DHT22;11202;50.916;4.698;2022-07-23T02:03:30;14.70;99.90
22073;DHT22;11202;50.916;4.698;2022-07-23T02:06:00;14.70;99.90
22073;DHT22;11202;50.916;4.698;2022-07-23T02:08:26;14.70;99.90
22073;DHT22;11202;50.916;4.698;2022-07-23T02:10:52;14.70;99.90
22073;DHT22;11202;50.916;4.698;2022-07-23T02:13:18;14.70;99.90
22073;DHT22;11202;50.916;4.698;2022-07-23T02:15:45;14.70;99.90
22073;DHT22;11202;50.916;4.698;2022-07-23T02:18:11;14.60;99.90
22073;DHT22;11202;50.916;4.698;2022-07-23T02:20:37;14.60;99.90
22073;DHT22;11202;50.916;4.698;2022-07-23T02:23:04;14.40;99.90
22073;DHT22;11202;50.916;4.698;2022-07-23T02:25:30;14.50;99.90
22073;DHT22;11202;50.916;4.698;2022-07-23T02:27:55;14.60;99.90
22073;DHT22;11202;50.916;4.698;2022-07-23T02:30:21;14.60;99.90
22073;DHT22;11202;50.916;4.698;2022-07-23T02:32:47;14.50;99.90
22073;DHT22;11202;50.916;4.698;2022-07-23T02:35:12;14.40;99.90
22073;DHT22;11202;50.916;4.698;2022-07-23T02:37:38;14.40;99.90
22073;DHT22;11202;50.916;4.698;2022-07-23T02:40:09;14.40;99.90
22073;DHT22;11202;50.916;4.698;2022-07-23T02:42:35;14.40;99.90
22073;DHT22;11202;50.916;4.698;2022-07-23T02:45:03;14.40;99.90
22073;DHT22;11202;50.916;4.698;2022-07-23T02:47:29;14.40;99.90
22073;DHT22;11202;50.916;4.698;2022-07-23T02:49:57;14.30;99.90
22073;DHT22;11202;50.916;4.698;2022-07-23T02:52:22;14.30;99.90
22073;DHT22;11202;50.916;4.698;2022-07-23T02:54:50;14.10;99.90
22073;DHT22;11202;50.916;4.698;2022-07-23T02:57:16;14.00;99.90
22073;DHT22;11202;50.916;4.698;2022-07-23T02:59:45;14.00;99.90
22073;DHT22;11202;50.916;4.698;2022-07-23T03:02:11;14.10;99.90
22073;DHT22;11202;50.916;4.698;2022-07-23T03:04:37;14.10;99.90
22073;DHT22;11202;50.916;4.698;2022-07-23T03:07:03;14.10;99.90
22073;DHT22;11202;50.916;4.698;2022-07-23T03:09:29;14.10;99.90
22073;DHT22;11202;50.916;4.698;2022-07-23T03:11:57;14.00;99.90
22073;DHT22;11202;50.916;4.698;2022-07-23T03:14:23;14.00;99.90
22073;DHT22;11202;50.916;4.698;2022-07-23T03:16:51;14.10;99.90
22073;DHT22;11202;50.916;4.698;2022-07-23T03:19:18;14.10;99.90
22073;DHT22;11202;50.916;4.698;2022-07-23T03:21:44;14.00;99.90
22073;DHT22;11202;50.916;4.698;2022-07-23T03:24:10;13.90;99.90
22073;DHT22;11202;50.916;4.698;2022-07-23T03:26:36;13.90;99.90
22073;DHT22;11202;50.916;4.698;2022-07-23T03:29:03;13.80;99.90
22073;DHT22;11202;50.916;4.698;2022-07-23T03:31:30;13.70;99.90
22073;DHT22;11202;50.916;4.698;2022-07-23T03:33:58;13.60;99.90
22073;DHT22;11202;50.916;4.698;2022-07-23T03:36:24;13.60;99.90
22073;DHT22;11202;50.916;4.698;2022-07-23T03:38:51;13.60;99.90
22073;DHT22;11202;50.916;4.698;2022-07-23T03:41:17;13.60;99.90
22073;DHT22;11202;50.916;4.698;2022-07-23T03:43:43;13.60;99.90
22073;DHT22;11202;50.916;4.698;2022-07-23T03:46:08;13.50;99.90
22073;DHT22;11202;50.916;4.698;2022-07-23T03:48:35;13.50;99.90
22073;DHT22;11202;50.916;4.698;2022-07-23T03:51:01;13.50;99.90
22073;DHT22;11202;50.916;4.698;2022-07-23T03:53:28;13.70;99.90
22073;DHT22;11202;50.916;4.698;2022-07-23T03:55:54;13.70;99.90
22073;DHT22;11202;50.916;4.698;2022-07-23T03:58:19;13.70;99.90
22073;DHT22;11202;50.916;4.698;2022-07-23T04:00:45;13.70;99.90
22073;DHT22;11202;50.916;4.698;2022-07-23T04:03:12;13.70;99.90
22073;DHT22;11202;50.916;4.698;2022-07-23T04:05:40;13.80;99.90
22073;DHT22;11202;50.916;4.698;2022-07-23T04:08:08;14.00;99.90
22073;DHT22;11202;50.916;4.698;2022-07-23T04:10:34;14.10;99.90
22073;DHT22;11202;50.916;4.698;2022-07-23T04:13:00;14.00;99.90
22073;DHT22;11202;50.916;4.698;2022-07-23T04:15:25;14.00;99.90
22073;DHT22;11202;50.916;4.698;2022-07-23T04:17:51;14.00;99.90
22073;DHT22;11202;50.916;4.698;2022-07-23T04:20:17;14.00;99.90
22073;DHT22;11202;50.916;4.698;2022-07-23T04:22:43;14.10;99.90
22073;DHT22;11202;50.916;4.698;2022-07-23T04:25:09;14.20;99.90
22073;DHT22;11202;50.916;4.698;2022-07-23T04:27:34;14.30;99.90
22073;DHT22;11202;50.916;4.698;2022-07-23T04:30:00;14.40;99.90
22073;DHT22;11202;50.916;4.698;2022-07-23T04:32:26;14.30;99.90
22073;DHT22;11202;50.916;4.698;2022-07-23T04:34:52;14.50;99.90
22073;DHT22;11202;50.916;4.698;2022-07-23T04:37:18;14.50;99.90
22073;DHT22;11202;50.916;4.698;2022-07-23T04:39:44;14.40;99.90
22073;DHT22;11202;50.916;4.698;2022-07-23T04:42:10;14.60;99.90
22073;DHT22;11202;50.916;4.698;2022-07-23T04:44:35;14.60;99.90
22073;DHT22;11202;50.916;4.698;2022-07-23T04:47:01;14.70;99.90
22073;DHT22;11202;50.916;4.698;2022-07-23T04:49:27;14.70;99.90
22073;DHT22;11202;50.916;4.698;2022-07-23T04:51:52;14.80;99.90
22073;DHT22;11202;50.916;4.698;2022-07-23T04:54:18;14.80;99.90
22073;DHT22;11202;50.916;4.698;2022-07-23T04:56:44;14.90;99.90
22073;DHT22;11202;50.916;4.698;2022-07-23T04:59:13;15.00;99.90
22073;DHT22;11202;50.916;4.698;2022-07-23T05:01:39;15.20;99.90
22073;DHT22;11202;50.916;4.698;2022-07-23T05:04:04;15.30;99.90
22073;DHT22;11202;50.916;4.698;2022-07-23T05:06:30;15.40;99.90
22073;DHT22;11202;50.916;4.698;2022-07-23T05:08:58;15.50;99.90
22073;DHT22;11202;50.916;4.698;2022-07-23T05:11:23;15.60;99.90
22073;DHT22;11202;50.916;4.698;2022-07-23T05:13:50;15.70;99.90
22073;DHT22;11202;50.916;4.698;2022-07-23T05:16:16;15.70;99.90
22073;DHT22;11202;50.916;4.698;2022-07-23T05:18:45;15.80;99.90
22073;DHT22;11202;50.916;4.698;2022-07-23T05:21:10;16.00;99.90
22073;DHT22;11202;50.916;4.698;2022-07-23T05:23:36;16.10;99.90
22073;DHT22;11202;50.916;4.698;2022-07-23T05:26:02;16.20;99.90
22073;DHT22;11202;50.916;4.698;2022-07-23T05:28:28;16.40;99.90
22073;DHT22;11202;50.916;4.698;2022-07-23T05:30:54;16.50;99.90
22073;DHT22;11202;50.916;4.698;2022-07-23T05:33:20;16.70;99.90
22073;DHT22;11202;50.916;4.698;2022-07-23T05:35:46;16.90;99.90
22073;DHT22;11202;50.916;4.698;2022-07-23T05:38:12;17.10;99.90
22073;DHT22;11202;50.916;4.698;2022-07-23T05:40:38;17.30;99.90
22073;DHT22;11202;50.916;4.698;2022-07-23T05:43:03;17.70;99.90
22073;DHT22;11202;50.916;4.698;2022-07-23T05:45:31;19.00;99.90
22073;DHT22;11202;50.916;4.698;2022-07-23T05:47:59;20.60;99.90
22073;DHT22;11202;50.916;4.698;2022-07-23T05:50:25;21.90;99.90
22073;DHT22;11202;50.916;4.698;2022-07-23T05:52:52;23.20;99.90
22073;DHT22;11202;50.916;4.698;2022-07-23T05:55:17;24.20;99.90
22073;DHT22;11202;50.916;4.698;2022-07-23T05:57:43;25.40;99.90
22073;DHT22;11202;50.916;4.698;2022-07-23T06:00:09;25.60;99.90
22073;DHT22;11202;50.916;4.698;2022-07-23T06:02:37;25.40;99.90
22073;DHT22;11202;50.916;4.698;2022-07-23T06:05:04;24.70;99.90
22073;DHT22;11202;50.916;4.698;2022-07-23T06:07:33;23.30;99.90
22073;DHT22;11202;50.916;4.698;2022-07-23T06:09:59;22.60;99.90
22073;DHT22;11202;50.916;4.698;2022-07-23T06:12:25;22.80;99.90
22073;DHT22;11202;50.916;4.698;2022-07-23T06:14:51;23.40;99.90
22073;DHT22;11202;50.916;4.698;2022-07-23T06:17:18;23.80;99.90
22073;DHT22;11202;50.916;4.698;2022-07-23T06:19:44;24.50;99.90
22073;DHT22;11202;50.916;4.698;2022-07-23T06:22:10;25.10;99.90
22073;DHT22;11202;50.916;4.698;2022-07-23T06:24:36;25.40;99.90
22073;DHT22;11202;50.916;4.698;2022-07-23T06:27:03;25.60;99.90
22073;DHT22;11202;50.916;4.698;2022-07-23T06:29:29;25.90;99.90
22073;DHT22;11202;50.916;4.698;2022-07-23T06:31:55;25.90;99.90
22073;DHT22;11202;50.916;4.698;2022-07-23T06:34:20;26.10;99.90
22073;DHT22;11202;50.916;4.698;2022-07-23T06:36:46;27.10;99.90
22073;DHT22;11202;50.916;4.698;2022-07-23T06:39:12;27.60;99.90
22073;DHT22;11202;50.916;4.698;2022-07-23T06:41:38;28.20;99.90
22073;DHT22;11202;50.916;4.698;2022-07-23T06:44:04;27.80;99.90
22073;DHT22;11202;50.916;4.698;2022-07-23T06:46:30;29.10;99.90
22073;DHT22;11202;50.916;4.698;2022-07-23T06:48:55;30.00;99.90
22073;DHT22;11202;50.916;4.698;2022-07-23T06:51:21;30.40;99.90
22073;DHT22;11202;50.916;4.698;2022-07-23T06:53:47;30.70;99.90
22073;DHT22;11202;50.916;4.698;2022-07-23T06:56:13;30.60;99.90
22073;DHT22;11202;50.916;4.698;2022-07-23T06:58:38;31.90;99.90
22073;DHT22;11202;50.916;4.698;2022-07-23T07:01:04;32.70;99.90
22073;DHT22;11202;50.916;4.698;2022-07-23T07:03:30;34.00;97.10
22073;DHT22;11202;50.916;4.698;2022-07-23T07:05:56;33.40;93.30
22073;DHT22;11202;50.916;4.698;2022-07-23T07:08:25;33.70;93.90
22073;DHT22;11202;50.916;4.698;2022-07-23T07:10:51;34.00;90.20
22073;DHT22;11202;50.916;4.698;2022-07-23T07:13:17;32.60;91.10
22073;DHT22;11202;50.916;4.698;2022-07-23T07:15:43;32.10;90.50
22073;DHT22;11202;50.916;4.698;2022-07-23T07:18:09;32.40;91.70
22073;DHT22;11202;50.916;4.698;2022-07-23T07:20:35;31.50;92.20
22073;DHT22;11202;50.916;4.698;2022-07-23T07:23:00;32.30;92.20
22073;DHT22;11202;50.916;4.698;2022-07-23T07:25:28;31.70;93.70
22073;DHT22;11202;50.916;4.698;2022-07-23T07:27:54;32.00;93.80
22073;DHT22;11202;50.916;4.698;2022-07-23T07:30:20;32.60;91.80
22073;DHT22;11202;50.916;4.698;2022-07-23T07:32:46;32.90;91.30
22073;DHT22;11202;50.916;4.698;2022-07-23T07:35:14;33.20;91.50
22073;DHT22;11202;50.916;4.698;2022-07-23T07:37:39;33.60;91.60
22073;DHT22;11202;50.916;4.698;2022-07-23T07:40:06;34.30;88.90
22073;DHT22;11202;50.916;4.698;2022-07-23T07:42:40;34.50;88.50
22073;DHT22;11202;50.916;4.698;2022-07-23T07:45:09;34.70;88.40
22073;DHT22;11202;50.916;4.698;2022-07-23T07:47:34;36.00;84.80
22073;DHT22;11202;50.916;4.698;2022-07-23T07:50:00;35.50;77.10
22073;DHT22;11202;50.916;4.698;2022-07-23T07:52:26;34.10;84.30
22073;DHT22;11202;50.916;4.698;2022-07-23T07:54:52;34.50;85.70
22073;DHT22;11202;50.916;4.698;2022-07-23T07:57:17;35.50;81.60
22073;DHT22;11202;50.916;4.698;2022-07-23T07:59:43;36.70;79.40
22073;DHT22;11202;50.916;4.698;2022-07-23T08:02:08;38.00;74.00
22073;DHT22;11202;50.916;4.698;2022-07-23T08:04:34;39.20;71.80
22073;DHT22;11202;50.916;4.698;2022-07-23T08:06:59;39.80;69.50
22073;DHT22;11202;50.916;4.698;2022-07-23T08:09:25;38.40;66.90
22073;DHT22;11202;50.916;4.698;2022-07-23T08:11:53;37.50;68.70
22073;DHT22;11202;50.916;4.698;2022-07-23T08:14:18;37.30;70.50
22073;DHT22;11202;50.916;4.698;2022-07-23T08:16:44;38.00;68.30
22073;DHT22;11202;50.916;4.698;2022-07-23T08:19:14;38.10;68.40
22073;DHT22;11202;50.916;4.698;2022-07-23T08:21:40;39.30;67.00
22073;DHT22;11202;50.916;4.698;2022-07-23T08:24:06;38.90;63.70
22073;DHT22;11202;50.916;4.698;2022-07-23T08:26:31;38.80;65.50
22073;DHT22;11202;50.916;4.698;2022-07-23T08:28:57;38.70;64.20
22073;DHT22;11202;50.916;4.698;2022-07-23T08:31:23;36.30;66.50
22073;DHT22;11202;50.916;4.698;2022-07-23T08:33:48;36.40;64.80
22073;DHT22;11202;50.916;4.698;2022-07-23T08:36:14;35.40;67.00
22073;DHT22;11202;50.916;4.698;2022-07-23T08:38:40;35.30;66.70
22073;DHT22;11202;50.916;4.698;2022-07-23T08:41:07;35.20;68.30
22073;DHT22;11202;50.916;4.698;2022-07-23T08:43:35;36.10;68.80
22073;DHT22;11202;50.916;4.698;2022-07-23T08:46:02;36.70;67.20
22073;DHT22;11202;50.916;4.698;2022-07-23T08:48:30;36.20;65.40
22073;DHT22;11202;50.916;4.698;2022-07-23T08:50:58;36.00;67.00
22073;DHT22;11202;50.916;4.698;2022-07-23T08:53:25;36.00;66.00
22073;DHT22;11202;50.916;4.698;2022-07-23T08:55:53;36.80;66.10
22073;DHT22;11202;50.916;4.698;2022-07-23T08:58:22;36.20;66.20
22073;DHT22;11202;50.916;4.698;2022-07-23T09:00:48;36.30;66.40
22073;DHT22;11202;50.916;4.698;2022-07-23T09:05:50;37.00;63.70
22073;DHT22;11202;50.916;4.698;2022-07-23T09:08:21;35.40;65.50
22073;DHT22;11202;50.916;4.698;2022-07-23T09:15:51;36.80;68.40
22073;DHT22;11202;50.916;4.698;2022-07-23T09:18:17;36.80;64.10
22073;DHT22;11202;50.916;4.698;2022-07-23T09:20:48;35.50;65.50
22073;DHT22;11202;50.916;4.698;2022-07-23T09:23:14;35.00;67.10
22073;DHT22;11202;50.916;4.698;2022-07-23T09:25:40;36.00;65.20
22073;DHT22;11202;50.916;4.698;2022-07-23T09:28:05;35.40;65.90
22073;DHT22;11202;50.916;4.698;2022-07-23T09:30:33;36.10;63.90
22073;DHT22;11202;50.916;4.698;2022-07-23T09:33:10;36.90;64.00
22073;DHT22;11202;50.916;4.698;2022-07-23T09:35:48;37.30;61.30
22073;DHT22;11202;50.916;4.698;2022-07-23T09:38:17;36.70;61.20
22073;DHT22;11202;50.916;4.698;2022-07-23T09:40:44;37.40;61.30
22073;DHT22;11202;50.916;4.698;2022-07-23T09:43:10;37.40;58.20
22073;DHT22;11202;50.916;4.698;2022-07-23T09:45:36;37.10;59.50
22073;DHT22;11202;50.916;4.698;2022-07-23T09:48:15;36.30;60.10
22073;DHT22;11202;50.916;4.698;2022-07-23T09:50:44;37.10;60.60
22073;DHT22;11202;50.916;4.698;2022-07-23T09:53:24;37.20;58.60
22073;DHT22;11202;50.916;4.698;2022-07-23T09:55:51;37.70;58.90
22073;DHT22;11202;50.916;4.698;2022-07-23T09:58:21;38.90;59.40
22073;DHT22;11202;50.916;4.698;2022-07-23T10:00:52;39.60;57.40
22073;DHT22;11202;50.916;4.698;2022-07-23T10:03:19;40.30;56.80
22073;DHT22;11202;50.916;4.698;2022-07-23T10:05:46;40.00;55.10
22073;DHT22;11202;50.916;4.698;2022-07-23T10:08:17;39.70;54.70
22073;DHT22;11202;50.916;4.698;2022-07-23T10:10:46;38.80;55.60
22073;DHT22;11202;50.916;4.698;2022-07-23T10:13:14;38.70;55.50
22073;DHT22;11202;50.916;4.698;2022-07-23T10:15:45;39.00;55.50
22073;DHT22;11202;50.916;4.698;2022-07-23T10:18:12;37.50;57.40
22073;DHT22;11202;50.916;4.698;2022-07-23T10:20:39;36.90;56.30
22073;DHT22;11202;50.916;4.698;2022-07-23T10:23:28;37.60;57.70
22073;DHT22;11202;50.916;4.698;2022-07-23T10:26:20;37.60;56.70
22073;DHT22;11202;50.916;4.698;2022-07-23T10:34:06;40.20;54.80
22073;DHT22;11202;50.916;4.698;2022-07-23T10:36:51;41.00;52.40
22073;DHT22;11202;50.916;4.698;2022-07-23T10:39:32;38.80;52.30
22073;DHT22;11202;50.916;4.698;2022-07-23T10:42:12;39.10;54.50
22073;DHT22;11202;50.916;4.698;2022-07-23T10:44:47;38.80;53.30
22073;DHT22;11202;50.916;4.698;2022-07-23T10:47:28;39.70;52.70
22073;DHT22;11202;50.916;4.698;2022-07-23T10:50:22;38.80;52.40
22073;DHT22;11202;50.916;4.698;2022-07-23T10:57:58;42.90;51.10
22073;DHT22;11202;50.916;4.698;2022-07-23T11:00:26;41.90;48.70
22073;DHT22;11202;50.916;4.698;2022-07-23T11:02:54;41.20;48.70
22073;DHT22;11202;50.916;4.698;2022-07-23T11:05:45;40.30;49.40
22073;DHT22;11202;50.916;4.698;2022-07-23T11:08:13;40.30;50.50
22073;DHT22;11202;50.916;4.698;2022-07-23T11:10:43;39.80;49.80
22073;DHT22;11202;50.916;4.698;2022-07-23T11:16:03;39.30;53.10
22073;DHT22;11202;50.916;4.698;2022-07-23T11:34:48;35.80;52.90
22073;DHT22;11202;50.916;4.698;2022-07-23T11:37:35;35.90;53.70
22073;DHT22;11202;50.916;4.698;2022-07-23T11:40:04;35.60;54.50
22073;DHT22;11202;50.916;4.698;2022-07-23T11:42:34;35.10;54.40
22073;DHT22;11202;50.916;4.698;2022-07-23T11:45:00;34.60;55.00
22073;DHT22;11202;50.916;4.698;2022-07-23T11:47:27;33.90;56.10
22073;DHT22;11202;50.916;4.698;2022-07-23T11:49:54;33.30;57.60
22073;DHT22;11202;50.916;4.698;2022-07-23T11:52:21;33.20;57.30
22073;DHT22;11202;50.916;4.698;2022-07-23T11:54:56;33.30;57.70
22073;DHT22;11202;50.916;4.698;2022-07-23T11:57:31;33.60;57.10
22073;DHT22;11202;50.916;4.698;2022-07-23T12:00:06;33.70;60.00
22073;DHT22;11202;50.916;4.698;2022-07-23T12:02:33;33.40;58.90
22073;DHT22;11202;50.916;4.698;2022-07-23T12:04:59;32.60;58.50
22073;DHT22;11202;50.916;4.698;2022-07-23T12:07:39;32.10;60.70
22073;DHT22;11202;50.916;4.698;2022-07-23T12:10:29;31.50;61.30
22073;DHT22;11202;50.916;4.698;2022-07-23T12:12:57;31.40;62.80
22073;DHT22;11202;50.916;4.698;2022-07-23T12:15:41;30.70;62.10
22073;DHT22;11202;50.916;4.698;2022-07-23T12:18:09;30.00;65.60
22073;DHT22;11202;50.916;4.698;2022-07-23T12:20:41;29.80;64.70
22073;DHT22;11202;50.916;4.698;2022-07-23T12:23:09;30.20;67.20
22073;DHT22;11202;50.916;4.698;2022-07-23T12:25:39;30.10;65.40
22073;DHT22;11202;50.916;4.698;2022-07-23T12:28:10;30.20;68.90
22073;DHT22;11202;50.916;4.698;2022-07-23T12:30:53;30.80;67.00
22073;DHT22;11202;50.916;4.698;2022-07-23T12:35:48;31.30;64.90
22073;DHT22;11202;50.916;4.698;2022-07-23T12:38:16;31.40;64.60
22073;DHT22;11202;50.916;4.698;2022-07-23T12:40:51;31.40;63.70
22073;DHT22;11202;50.916;4.698;2022-07-23T12:48:28;31.20;68.20
22073;DHT22;11202;50.916;4.698;2022-07-23T12:50:59;31.20;64.60
22073;DHT22;11202;50.916;4.698;2022-07-23T12:56:17;31.40;65.00
22073;DHT22;11202;50.916;4.698;2022-07-23T12:58:53;31.50;66.60
22073;DHT22;11202;50.916;4.698;2022-07-23T13:04:06;31.70;65.20
22073;DHT22;11202;50.916;4.698;2022-07-23T13:09:02;31.30;67.40
22073;DHT22;11202;50.916;4.698;2022-07-23T13:11:30;31.20;67.80
22073;DHT22;11202;50.916;4.698;2022-07-23T13:13:57;31.10;67.90
22073;DHT22;11202;50.916;4.698;2022-07-23T13:16:23;31.00;67.50
22073;DHT22;11202;50.916;4.698;2022-07-23T13:18:49;31.20;69.50
22073;DHT22;11202;50.916;4.698;2022-07-23T13:21:18;31.30;70.00
22073;DHT22;11202;50.916;4.698;2022-07-23T13:23:43;31.20;65.80
22073;DHT22;11202;50.916;4.698;2022-07-23T13:26:09;30.90;69.20
22073;DHT22;11202;50.916;4.698;2022-07-23T13:28:35;31.00;68.50
22073;DHT22;11202;50.916;4.698;2022-07-23T13:31:03;31.10;68.20
22073;DHT22;11202;50.916;4.698;2022-07-23T13:33:34;30.90;68.40
22073;DHT22;11202;50.916;4.698;2022-07-23T13:36:00;30.90;70.70
22073;DHT22;11202;50.916;4.698;2022-07-23T13:38:28;31.00;68.50
22073;DHT22;11202;50.916;4.698;2022-07-23T13:40:54;30.80;67.70
22073;DHT22;11202;50.916;4.698;2022-07-23T13:43:22;30.40;68.90
22073;DHT22;11202;50.916;4.698;2022-07-23T13:45:49;30.10;69.80
22073;DHT22;11202;50.916;4.698;2022-07-23T13:48:16;30.10;70.70
22073;DHT22;11202;50.916;4.698;2022-07-23T13:50:42;29.90;71.30
22073;DHT22;11202;50.916;4.698;2022-07-23T13:53:11;29.90;69.90
22073;DHT22;11202;50.916;4.698;2022-07-23T13:55:38;29.70;70.00
22073;DHT22;11202;50.916;4.698;2022-07-23T13:58:04;29.90;70.90
22073;DHT22;11202;50.916;4.698;2022-07-23T14:00:31;29.80;69.70
22073;DHT22;11202;50.916;4.698;2022-07-23T14:02:58;30.30;69.40
22073;DHT22;11202;50.916;4.698;2022-07-23T14:05:24;30.30;68.90
22073;DHT22;11202;50.916;4.698;2022-07-23T14:07:51;30.50;72.20
22073;DHT22;11202;50.916;4.698;2022-07-23T14:10:19;31.20;69.90
22073;DHT22;11202;50.916;4.698;2022-07-23T14:12:46;31.80;68.30
22073;DHT22;11202;50.916;4.698;2022-07-23T14:15:12;32.20;67.20
22073;DHT22;11202;50.916;4.698;2022-07-23T14:17:41;32.50;67.20
22073;DHT22;11202;50.916;4.698;2022-07-23T14:20:09;32.40;66.60
22073;DHT22;11202;50.916;4.698;2022-07-23T14:22:35;32.40;66.50
22073;DHT22;11202;50.916;4.698;2022-07-23T14:25:05;31.80;67.50
22073;DHT22;11202;50.916;4.698;2022-07-23T14:27:31;32.00;67.40
22073;DHT22;11202;50.916;4.698;2022-07-23T14:29:58;32.00;69.70
22073;DHT22;11202;50.916;4.698;2022-07-23T14:32:24;31.50;67.40
22073;DHT22;11202;50.916;4.698;2022-07-23T14:34:50;31.30;68.70
22073;DHT22;11202;50.916;4.698;2022-07-23T14:37:16;31.20;70.50
22073;DHT22;11202;50.916;4.698;2022-07-23T14:39:43;31.20;70.70
22073;DHT22;11202;50.916;4.698;2022-07-23T14:42:10;31.10;68.00
22073;DHT22;11202;50.916;4.698;2022-07-23T14:44:38;31.20;70.90
22073;DHT22;11202;50.916;4.698;2022-07-23T14:47:05;31.30;68.90
22073;DHT22;11202;50.916;4.698;2022-07-23T14:49:31;31.10;71.80
22073;DHT22;11202;50.916;4.698;2022-07-23T14:52:02;31.00;71.60
22073;DHT22;11202;50.916;4.698;2022-07-23T14:54:28;30.90;70.00
22073;DHT22;11202;50.916;4.698;2022-07-23T14:56:56;30.80;70.60
22073;DHT22;11202;50.916;4.698;2022-07-23T14:59:22;30.80;69.40
22073;DHT22;11202;50.916;4.698;2022-07-23T15:01:48;30.40;72.50
22073;DHT22;11202;50.916;4.698;2022-07-23T15:04:14;30.70;70.80
22073;DHT22;11202;50.916;4.698;2022-07-23T15:06:40;30.80;70.60
22073;DHT22;11202;50.916;4.698;2022-07-23T15:09:06;30.80;69.20
22073;DHT22;11202;50.916;4.698;2022-07-23T15:11:32;30.60;71.10
22073;DHT22;11202;50.916;4.698;2022-07-23T15:14:04;30.60;71.20
22073;DHT22;11202;50.916;4.698;2022-07-23T15:16:30;30.60;70.70
22073;DHT22;11202;50.916;4.698;2022-07-23T15:18:58;30.50;69.20
22073;DHT22;11202;50.916;4.698;2022-07-23T15:21:23;30.50;68.30
22073;DHT22;11202;50.916;4.698;2022-07-23T15:23:49;30.40;70.80
22073;DHT22;11202;50.916;4.698;2022-07-23T15:26:15;29.80;71.00
22073;DHT22;11202;50.916;4.698;2022-07-23T15:28:44;29.80;75.50
22073;DHT22;11202;50.916;4.698;2022-07-23T15:31:09;30.70;72.50
22073;DHT22;11202;50.916;4.698;2022-07-23T15:33:36;30.90;70.70
22073;DHT22;11202;50.916;4.698;2022-07-23T15:36:02;31.20;71.80
22073;DHT22;11202;50.916;4.698;2022-07-23T15:38:28;31.50;70.70
22073;DHT22;11202;50.916;4.698;2022-07-23T15:40:55;31.50;71.70
22073;DHT22;11202;50.916;4.698;2022-07-23T15:43:24;31.40;70.80
22073;DHT22;11202;50.916;4.698;2022-07-23T15:45:53;31.10;68.40
22073;DHT22;11202;50.916;4.698;2022-07-23T15:48:20;30.60;71.30
22073;DHT22;11202;50.916;4.698;2022-07-23T15:50:46;30.70;72.30
22073;DHT22;11202;50.916;4.698;2022-07-23T15:53:14;30.60;70.40
22073;DHT22;11202;50.916;4.698;2022-07-23T15:55:40;30.50;69.50
22073;DHT22;11202;50.916;4.698;2022-07-23T15:58:06;30.20;70.60
22073;DHT22;11202;50.916;4.698;2022-07-23T16:00:33;30.00;74.70
22073;DHT22;11202;50.916;4.698;2022-07-23T16:02:59;29.60;72.20
22073;DHT22;11202;50.916;4.698;2022-07-23T16:05:27;29.40;75.50
22073;DHT22;11202;50.916;4.698;2022-07-23T16:07:53;29.20;74.90
22073;DHT22;11202;50.916;4.698;2022-07-23T16:10:19;29.10;73.20
22073;DHT22;11202;50.916;4.698;2022-07-23T16:12:46;28.70;73.50
22073;DHT22;11202;50.916;4.698;2022-07-23T16:15:12;28.50;75.60
22073;DHT22;11202;50.916;4.698;2022-07-23T16:17:40;28.50;74.00
22073;DHT22;11202;50.916;4.698;2022-07-23T16:20:07;28.50;75.00
22073;DHT22;11202;50.916;4.698;2022-07-23T16:22:33;28.70;75.00
22073;DHT22;11202;50.916;4.698;2022-07-23T16:24:59;28.90;77.20